アナディリ の空港の天気 - METARとTAF

アナディリ・ウゴルヌイ空港 ( UHMA / DYR ) - ロシア アナディリ
飛行場実況気象(Metar)
観測時間05/28 21:00 MAGT (05/28 10:00 UTC)
風向・風速南南東 5m/s
視程10km以上
天気現象
なし
気温9℃
湿度66%
気圧1016hPa
METARUHMA 281000Z 16005MPS CAVOK 09/03 Q1016 R01/////// NOSIG RMK TDZ R01/16005G06MPS END R01/16004G05MPS QFE758/1011
過去の天気等 Google飛行場航空写真 Wunderground天気予報

過去48時間のMETAR

飛行場予報(TAF)
発表時間: 5/28 18:42 MAGT (5/28 07:42 UTC)
予報対象時間: 28日20時 MAGT ~ 29日20時 MAGT
風向・風速南 3m/s 瞬間風速 8m/s
視程10km以上
なし
28日20時 MAGT ~ 29日20時 MAGT に一時的に
風向・風速南東 8m/s
視程5000m
天気現象もや
全天の4割程度の雲 雲底高度 460m
TAF UHMA 280742Z 2809/2909 17003G08MPS 9999 NSC
TEMPO 2809/2909 13008MPS 5000 BR SCT015